M I D A S
Marine Information and Data Acquisition System
Tripno 581 of the Zeeleeuw from 2003-09-02 06:28:39 to 2003-09-02 14:26:07
Back to CruiseResearch ActivitiesStationsMapUnderway DataData graphs

EquipmentUnitsComment
TimeDGPSUTC
LatitudeDGPSDM.mWGS84
LongitudeDGPSDM.mWGS84
TemperatureSBE03/SBE38deg celciusITS90
ConductivitySBE21S/mITS90
SalinitySBE21 Practical Salinity Units
ChlorophylAChelsea fluorimeterg/lCalibrated in Aceton
Missing or incorrect values are displayed as -999
Sea surface data collected by the RV Zeeleeuw from 2003-09-02 06:28:39 to 2003-09-02 14:26:07
Time Latitude Longitude Temperature Conductivity Salinity ChlorophylA
2003-09-02 06:29:41 51°13.92 2°55.56 18.52146 3.667757 26.810736 5.45499
2003-09-02 06:30:41 51°14.04 2°55.48 18.539684 3.720343 27.263574 5.252734
2003-09-02 06:31:41 51°14.16 2°55.39 18.569592 3.666598 26.84887 4.848221
2003-09-02 06:32:41 51°14.27 2°55.23 18.519145 3.682511 27.002104 4.612255
2003-09-02 06:33:41 51°14.39 2°55.02 18.541088 3.683565 27.031857 4.645965
2003-09-02 06:34:41 51°14.55 2°54.86 18.451081 3.914495 28.922687 5.792084
2003-09-02 06:35:41 51°14.74 2°54.78 18.579751 4.085186 30.331635 5.623537
2003-09-02 06:36:41 51°14.95 2°54.7 18.828192 4.252541 31.59321 3.668392
2003-09-02 06:37:41 51°15.17 2°54.76 18.690498 4.318458 32.044145 2.421144
2003-09-02 06:38:41 51°15.35 2°54.95 18.843127 4.364446 32.380183 1.5447
2003-09-02 06:39:41 51°15.51 2°55.17 18.749802 4.373412 32.44667 1.645828
2003-09-02 06:40:41 51°15.66 2°55.43 18.795965 4.371197 32.430548 1.612118
2003-09-02 06:41:41 51°15.81 2°55.69 18.735424 4.376365 32.482405 1.477281
2003-09-02 06:42:41 51°15.94 2°55.97 18.90004 4.369615 32.42697 1.814375
2003-09-02 06:43:41 51°16.07 2°56.26 18.762159 4.345776 32.226001 2.252597
2003-09-02 06:44:41 51°16.19 2°56.56 18.776656 4.352421 32.290008 2.320016
2003-09-02 06:45:41 51°16.32 2°56.86 18.853904 4.352105 32.302487 1.780665
2003-09-02 06:46:41 51°16.45 2°57.16 18.649257 4.352949 32.329649 1.679537
2003-09-02 06:47:41 51°16.57 2°57.46 18.652722 4.351473 32.311792 1.814375
2003-09-02 06:48:41 51°16.69 2°57.77 18.807779 4.350418 32.301921 1.814375
2003-09-02 06:49:41 51°16.81 2°58.08 18.669427 4.348414 32.29425 1.848084
2003-09-02 06:50:41 51°16.93 2°58.39 18.706947 4.347886 32.290434 1.982922
2003-09-02 06:51:41 51°17.05 2°58.69 18.718776 4.342612 32.241642 2.387435
2003-09-02 06:52:41 51°17.17 2°58.99 18.718694 4.342401 32.234305 2.758238
2003-09-02 06:53:41 51°17.29 2°59.3 18.783161 4.340925 32.223174 2.65711
2003-09-02 06:54:41 51°17.41 2°59.6 18.753262 4.337655 32.198848 2.859366
2003-09-02 06:55:41 51°17.53 2°59.91 18.634445 4.344194 32.249177 2.488563
2003-09-02 06:56:41 51°17.65 3°0.22 18.656394 4.349574 32.275342 2.488563
2003-09-02 06:57:41 51°17.77 3°0.52 18.79012 4.354953 32.30652 2.555982
2003-09-02 06:58:41 51°17.89 3°0.83 18.710121 4.351261 32.282626 2.825657
2003-09-02 06:59:41 51°18.01 3°1.13 18.705669 4.348308 32.26373 3.129042
2003-09-02 07:00:41 51°18.13 3°1.43 18.630732 4.344089 32.235453 3.365007
2003-09-02 07:01:41 51°18.25 3°1.74 18.769325 4.342085 32.217164 3.499845
2003-09-02 07:02:41 51°18.37 3°2.04 18.632836 4.343561 32.230522 3.634683
2003-09-02 07:03:41 51°18.5 3°2.33 18.702949 4.344089 32.235453 3.432426
2003-09-02 07:04:41 51°18.64 3°2.61 18.829714 4.348519 32.267155 3.398717
2003-09-02 07:05:41 51°18.77 3°2.9 18.786579 4.347885 32.241248 3.870648
2003-09-02 07:06:41 51°18.91 3°3.18 18.738432 4.348835 32.235168 3.702101
2003-09-02 07:07:41 51°19.04 3°3.46 18.661013 4.353159 32.282715 3.499845
2003-09-02 07:08:41 51°19.18 3°3.74 18.814323 4.349784 32.230765 3.80323
2003-09-02 07:09:41 51°19.32 3°4.02 18.784602 4.354952 32.262404 3.80323
2003-09-02 07:10:41 51°19.45 3°4.3 18.762695 4.355374 32.262551 3.836939
2003-09-02 07:11:41 51°19.58 3°4.58 18.823213 4.355796 32.259912 3.735811
2003-09-02 07:12:41 51°19.72 3°4.86 18.828562 4.358538 32.276475 4.039195
2003-09-02 07:13:41 51°19.85 3°5.14 18.891531 4.363179 32.292016 4.275161
2003-09-02 07:14:41 51°19.98 3°5.42 18.833458 4.368663 32.311176 4.34258
2003-09-02 07:15:41 51°20.11 3°5.7 18.94064 4.370035 32.320281 4.241452
2003-09-02 07:16:41 51°20.25 3°5.97 18.909905 4.371933 32.329843 4.039195
2003-09-02 07:17:41 51°20.38 3°6.26 18.78979 4.371828 32.335103 4.241452
2003-09-02 07:18:41 51°20.51 3°6.54 18.978713 4.366976 32.308926 4.578546
2003-09-02 07:19:41 51°20.64 3°6.81 18.927534 4.367081 32.306454 4.578546
2003-09-02 07:20:41 51°20.77 3°7.09 18.893792 4.374992 32.357356 3.904358
2003-09-02 07:21:41 51°20.91 3°7.37 18.819591 4.379317 32.376363 3.735811
2003-09-02 07:22:41 51°21.03 3°7.66 18.806874 4.378684 32.380617 3.938067
2003-09-02 07:23:41 51°21.14 3°7.96 18.910439 4.374254 32.35683 4.140324
2003-09-02 07:24:41 51°21.24 3°8.27 18.847816 4.373516 32.363561 3.904358
2003-09-02 07:25:41 51°21.34 3°8.57 19.035967 4.38649 32.438991 3.533554
2003-09-02 07:26:41 51°21.44 3°8.87 18.968652 4.389338 32.454705 3.499845
2003-09-02 07:27:41 51°21.55 3°9.17 18.950253 4.402101 32.524922 3.600973
2003-09-02 07:28:41 51°21.64 3°9.48 18.832553 4.401468 32.522493 3.398717
2003-09-02 07:29:41 51°21.74 3°9.77 18.904027 4.401362 32.517705 3.533554
2003-09-02 07:30:41 51°21.84 3°10.07 18.950253 4.404104 32.520217 3.466136
2003-09-02 07:31:41 51°21.93 3°10.36 19.07247 4.393029 32.453915 2.893076
2003-09-02 07:32:41 51°22.03 3°10.63 18.979452 4.389863 32.365426 2.589691
2003-09-02 07:33:41 51°22.12 3°10.88 19.09424 4.389336 32.368304 3.095332
2003-09-02 07:34:41 51°22.22 3°11.14 18.999198 4.389125 32.391039 2.825657
2003-09-02 07:35:39 51°22.3 3°11.42 19.031413 4.395137 32.406668 2.825657
2003-09-02 07:36:41 51°22.35 3°11.74 19.032767 4.39672 32.425275 2.825657
2003-09-02 07:37:41 51°22.4 3°12.04 19.012701 4.398302 32.457267 2.926785
2003-09-02 07:38:41 51°22.46 3°12.35 18.955017 4.395666 32.449453 2.690819
2003-09-02 07:39:41 51°22.5 3°12.68 18.972595 4.392712 32.437907 2.6234
2003-09-02 07:40:41 51°22.52 3°13.01 18.976331 4.390603 32.430534 2.555982
2003-09-02 07:41:41 51°22.57 3°13.33 18.989182 4.39651 32.463671 2.353725
2003-09-02 07:42:41 51°22.62 3°13.65 18.940353 4.406003 32.522473 2.353725
2003-09-02 07:43:41 51°22.66 3°13.97 19.016149 4.402206 32.503985 2.286306
2003-09-02 07:44:41 51°22.71 3°14.28 18.99263 4.399041 32.455551 1.915503
2003-09-02 07:45:41 51°22.77 3°14.57 19.123624 4.395981 32.40528 1.746956
2003-09-02 07:46:41 51°22.82 3°14.7 19.007243 4.41096 32.506982 1.645828
2003-09-02 07:47:41 51°22.83 3°14.78 19.075217 4.420032 32.570566 1.645828
2003-09-02 07:48:41 51°22.84 3°14.82 19.008187 4.425728 32.617502 1.578409
2003-09-02 07:49:41 51°22.85 3°14.83 19.109897 4.426783 32.627314 1.578409
2003-09-02 07:50:41 51°22.86 3°14.84 18.970993 4.427732 32.635138 1.5447
2003-09-02 07:51:41 51°22.87 3°14.84 18.971609 4.429737 32.649418 1.612118
2003-09-02 07:52:41 51°22.88 3°14.83 18.973621 4.430581 32.658612 1.578409
2003-09-02 07:53:41 51°22.88 3°14.83 18.974976 4.431108 32.66464 1.578409
2003-09-02 07:54:41 51°22.89 3°14.82 18.973087 4.433112 32.67332 1.612118
2003-09-02 07:55:41 51°22.89 3°14.81 18.977029 4.435644 32.692505 1.578409
2003-09-02 07:56:41 51°22.89 3°14.8 18.976947 4.436171 32.697973 1.578409
2003-09-02 07:57:41 51°22.88 3°14.8 18.974607 4.436383 32.705317 1.612118
2003-09-02 07:58:41 51°22.86 3°14.8 18.975756 4.437437 32.709528 1.612118
2003-09-02 07:59:41 51°22.8 3°14.73 18.972595 4.437332 32.708659 1.645828
2003-09-02 08:00:41 51°22.81 3°14.59 18.97514 4.439125 32.722881 1.645828
2003-09-02 08:01:41 51°22.86 3°14.52 18.97243 4.436066 32.699345 1.679537
2003-09-02 08:02:41 51°22.93 3°14.54 18.977399 4.434589 32.688853 1.612118
2003-09-02 08:03:41 51°22.98 3°14.61 18.981792 4.438176 32.712812 1.645828
2003-09-02 08:04:41 51°23.03 3°14.69 18.982079 4.440918 32.732615 1.679537
2003-09-02 08:05:41 51°23.05 3°14.77 18.978097 4.444716 32.76392 1.645828
2003-09-02 08:06:41 51°23.06 3°14.82 18.974771 4.446193 32.777781 1.679537
2003-09-02 08:07:41 51°23.07 3°14.86 18.97551 4.447037 32.785301 1.679537
2003-09-02 08:08:41 51°23.07 3°14.91 18.976126 4.450835 32.81774 1.713247
2003-09-02 08:09:41 51°23.07 3°14.95 18.975387 4.451573 32.825518 1.679537
2003-09-02 08:10:41 51°23.08 3°14.98 18.970788 4.451362 32.82209 1.713247
2003-09-02 08:11:41 51°23.09 3°15.03 18.969186 4.45189 32.833756 1.713247
2003-09-02 08:12:41 51°23.09 3°15.08 18.972184 4.454422 32.851825 1.679537
2003-09-02 08:13:41 51°23.11 3°15.12 18.974771 4.456531 32.86416 1.746956
2003-09-02 08:14:41 51°23.14 3°15.17 18.975387 4.457903 32.876035 1.746956
2003-09-02 08:15:41 51°23.16 3°15.21 18.979985 4.458008 32.876905 1.746956
2003-09-02 08:16:41 51°23.18 3°15.26 18.979452 4.460013 32.887803 1.780665
2003-09-02 08:17:41 51°23.18 3°15.31 18.981094 4.46054 32.893844 1.746956
2003-09-02 08:18:41 51°23.18 3°15.36 18.979739 4.460646 32.890769 1.780665
2003-09-02 08:19:41 51°23.2 3°15.41 18.981915 4.460751 32.895021 1.881794
2003-09-02 08:20:41 51°23.21 3°15.46 18.981628 4.461489 32.897729 1.848084
2003-09-02 08:21:41 51°23.22 3°15.51 18.985405 4.460646 32.890769 1.881794
2003-09-02 08:22:41 51°23.23 3°15.56 18.985159 4.461911 32.897264 1.915503
2003-09-02 08:23:41 51°23.22 3°15.61 18.984502 4.461489 32.898857 1.949212
2003-09-02 08:24:41 51°23.23 3°15.66 18.980642 4.461489 32.897729 2.050341
2003-09-02 08:25:41 51°23.24 3°15.7 18.982777 4.461278 32.896553 2.050341
2003-09-02 08:26:41 51°23.26 3°15.75 18.990167 4.463494 32.910314 2.117759
2003-09-02 08:27:41 51°23.26 3°15.8 19.003713 4.455582 32.837757 2.286306
2003-09-02 08:28:41 51°23.27 3°15.85 19.017749 4.450412 32.787289 2.320016
2003-09-02 08:29:41 51°23.28 3°15.89 19.026776 4.445138 32.732625 2.387435
2003-09-02 08:30:41 51°23.29 3°15.94 19.032151 4.443028 32.709094 2.421144
2003-09-02 08:31:41 51°23.31 3°15.98 19.031085 4.441445 32.694389 2.387435
2003-09-02 08:32:41 51°23.31 3°16.02 19.027843 4.448091 32.748544 2.791947
2003-09-02 08:33:41 51°23.3 3°16.06 19.032315 4.447669 32.745629 2.859366
2003-09-02 08:34:41 51°23.28 3°16.06 19.041382 4.446614 32.734143 2.825657
2003-09-02 08:35:41 51°23.25 3°16.04 19.0534 4.441972 32.686987 2.522272
2003-09-02 08:36:41 51°23.22 3°16 19.054057 4.438069 32.647054 2.421144
2003-09-02 08:37:41 51°23.18 3°15.94 19.053236 4.437331 32.643212 2.421144
2003-09-02 08:38:41 51°23.16 3°15.86 19.049832 4.437225 32.641786 2.454853
2003-09-02 08:39:41 51°23.14 3°15.79 19.046058 4.436803 32.637757 2.421144
2003-09-02 08:40:41 51°23.11 3°15.65 19.03929 4.439335 32.662493 2.488563
2003-09-02 08:41:41 51°23.1 3°15.32 19.027966 4.443133 32.703807 2.589691
2003-09-02 08:42:41 51°23.11 3°14.92 19.009582 4.449779 32.769731 2.589691
2003-09-02 08:43:41 51°23.16 3°14.51 19.000635 4.459168 32.85607 2.522272
2003-09-02 08:44:41 51°23.24 3°14.12 18.989757 4.460118 32.871211 2.387435
2003-09-02 08:45:41 51°23.39 3°13.8 18.986842 4.466342 32.929858 2.6234
2003-09-02 08:46:41 51°23.55 3°13.49 18.970706 4.472777 32.985763 2.589691
2003-09-02 08:47:41 51°23.7 3°13.19 18.945734 4.485859 33.109599 2.353725
2003-09-02 08:48:41 51°23.85 3°12.89 18.954935 4.491873 33.172345 2.488563
2003-09-02 08:49:41 51°24.01 3°12.61 18.959823 4.499258 33.228818 2.454853
2003-09-02 08:50:39 51°24.18 3°12.34 18.983147 4.503372 33.254269 2.454853
2003-09-02 08:51:41 51°24.31 3°11.99 18.986678 4.508752 33.286751 2.218888
2003-09-02 08:52:41 51°24.39 3°11.61 18.993533 4.512023 33.312061 2.320016
2003-09-02 08:53:41 51°24.47 3°11.23 18.995134 4.511495 33.299713 2.218888
2003-09-02 08:54:41 51°24.51 3°10.84 18.992261 4.509174 33.281681 2.353725
2003-09-02 08:55:41 51°24.54 3°10.44 18.982079 4.506747 33.261639 2.218888
2003-09-02 08:56:41 51°24.58 3°10.04 18.978754 4.502106 33.232412 2.252597
2003-09-02 08:57:41 51°24.63 3°9.65 18.978097 4.495776 33.182975 2.016631
2003-09-02 08:58:39 51°24.69 3°9.28 18.985857 4.495459 33.175243 1.982922
2003-09-02 08:59:41 51°24.75 3°8.88 18.982901 4.499046 33.203158 2.016631
2003-09-02 09:00:39 51°24.81 3°8.51 18.980027 4.499363 33.208048 1.848084
2003-09-02 09:01:41 51°24.87 3°8.12 18.977193 4.499996 33.213276 1.915503
2003-09-02 09:02:41 51°24.95 3°7.74 18.976413 4.503055 33.237977 1.915503
2003-09-02 09:03:41 51°25.06 3°7.4 18.974607 4.504954 33.258223 2.050341
2003-09-02 09:04:41 51°25.24 3°7.19 18.974689 4.503899 33.249507 2.185178
2003-09-02 09:05:41 51°25.45 3°7.27 18.974483 4.502317 33.234155 2.252597
2003-09-02 09:06:41 51°25.57 3°7.53 18.96894 4.498624 33.206502 2.185178
2003-09-02 09:07:41 51°25.7 3°7.79 18.963232 4.500418 33.224733 2.185178
2003-09-02 09:08:41 51°25.84 3°8.04 18.959987 4.500312 33.229558 2.185178
2003-09-02 09:09:41 51°25.99 3°8.28 18.954853 4.500945 33.237068 2.252597
2003-09-02 09:10:39 51°26.13 3°8.52 18.955551 4.501684 33.246592 2.185178
2003-09-02 09:11:41 51°26.29 3°8.76 18.962451 4.505165 33.271943 2.151469
2003-09-02 09:12:41 51°26.46 3°8.98 18.970172 4.50506 33.266508 2.151469
2003-09-02 09:13:41 51°26.62 3°9.21 18.983886 4.507381 33.279983 2.185178
2003-09-02 09:14:41 51°26.72 3°9.35 19.008638 4.508646 33.273333 2.252597
2003-09-02 09:15:41 51°26.74 3°9.37 19.019308 4.512233 33.285854 2.050341
2003-09-02 09:16:41 51°26.75 3°9.36 19.010403 4.510651 33.269372 2.151469
2003-09-02 09:17:41 51°26.76 3°9.34 19.014507 4.50949 33.267197 2.286306
2003-09-02 09:18:41 51°26.77 3°9.33 19.0317 4.51044 33.26877 2.151469
2003-09-02 09:19:41 51°26.78 3°9.31 19.030674 4.511072 33.258054 2.08405
2003-09-02 09:20:47 51°26.8 3°9.29 19.068492 4.512338 33.271346 2.08405
2003-09-02 09:21:47 51°26.86 3°9.29 19.031454 4.513077 33.267763 2.016631
2003-09-02 09:22:47 51°26.92 3°9.34 19.004534 4.510861 33.266558 2.08405
2003-09-02 09:23:47 51°26.96 3°9.42 19.011183 4.509701 33.269508 1.949212
2003-09-02 09:24:47 51°26.98 3°9.47 19.003426 4.509912 33.268972 1.713247
2003-09-02 09:25:47 51°27.01 3°9.52 18.992507 4.508646 33.265355 1.780665
2003-09-02 09:26:47 51°27.04 3°9.55 18.991276 4.507275 33.263146 1.915503
2003-09-02 09:27:47 51°27.06 3°9.58 19.010403 4.508857 33.269377 1.848084
2003-09-02 09:28:51 51°27.09 3°9.63 19.008351 4.509068 33.263143 1.915503
2003-09-02 09:29:51 51°27.11 3°9.68 19.006381 4.509596 33.267498 2.050341
2003-09-02 09:30:51 51°27.13 3°9.72 19.003426 4.51044 33.276176 2.08405
2003-09-02 09:31:51 51°27.16 3°9.76 19.013809 4.508541 33.263915 2.117759
2003-09-02 09:32:51 51°27.19 3°9.79 19.012907 4.510123 33.267296 2.117759
2003-09-02 09:33:51 51°27.22 3°9.83 19.016969 4.511284 33.276306 2.117759
2003-09-02 09:34:51 51°27.25 3°9.88 19.013522 4.511706 33.278651 2.117759
2003-09-02 09:35:51 51°27.28 3°9.92 19.01028 4.510967 33.277112 2.117759
2003-09-02 09:36:53 51°27.3 3°9.97 19.010814 4.510862 33.28023 2.117759
2003-09-02 09:37:53 51°27.33 3°10.02 19.018036 4.510651 33.275069 2.151469
2003-09-02 09:38:53 51°27.36 3°10.06 19.023166 4.512233 33.282435 2.117759
2003-09-02 09:39:53 51°27.39 3°10.09 19.028664 4.513288 33.285447 1.848084
2003-09-02 09:40:53 51°27.42 3°10.11 19.037444 4.511705 33.269538 1.982922
2003-09-02 09:41:55 51°27.45 3°10.14 19.03371 4.515292 33.291736 1.881794
2003-09-02 09:42:57 51°27.47 3°10.18 19.032972 4.514659 33.292778 2.050341
2003-09-02 09:43:55 51°27.49 3°10.22 19.067262 4.516242 33.301281 1.881794
2003-09-02 09:44:55 51°27.52 3°10.26 19.037321 4.517402 33.313138 1.915503
2003-09-02 09:45:55 51°27.54 3°10.3 19.035557 4.517086 33.305397 1.881794
2003-09-02 09:46:57 51°27.57 3°10.34 19.036377 4.517508 33.312299 1.949212
2003-09-02 09:47:57 51°27.59 3°10.38 19.034408 4.518035 33.316082 1.915503
2003-09-02 09:48:55 51°27.61 3°10.4 19.039085 4.51793 33.313502 1.949212
2003-09-02 09:49:55 51°27.62 3°10.41 19.032521 4.519618 33.333136 1.982922
2003-09-02 09:50:57 51°27.63 3°10.41 19.025956 4.519723 33.334007 2.185178
2003-09-02 09:51:57 51°27.64 3°10.41 19.01106 4.519724 33.339713 2.218888
2003-09-02 09:52:55 51°27.64 3°10.4 19.028664 4.519302 33.342506 2.218888
2003-09-02 09:53:57 51°27.64 3°10.38 19.02255 4.519513 33.339682 2.252597
2003-09-02 09:54:57 51°27.64 3°10.36 19.046058 4.520251 33.34578 2.252597
2003-09-02 09:55:55 51°27.69 3°10.35 19.020211 4.524365 33.359199 2.252597
2003-09-02 09:56:55 51°27.77 3°10.16 19.020539 4.521834 33.357134 2.286306
2003-09-02 09:57:57 51°27.88 3°9.82 19.004329 4.520884 33.353861 2.353725
2003-09-02 09:58:57 51°27.97 3°9.48 19.031003 4.518141 33.331782 2.286306
2003-09-02 09:59:55 51°28.04 3°9.13 19.048437 4.518457 33.313295 2.252597
2003-09-02 10:00:55 51°28.11 3°8.77 19.064884 4.516558 33.287376 2.185178
2003-09-02 10:01:55 51°28.18 3°8.41 19.068574 4.514131 33.257695 2.151469
2003-09-02 10:02:55 51°28.25 3°8.05 19.078456 4.515608 33.266461 2.151469
2003-09-02 10:03:55 51°28.32 3°7.69 19.109077 4.514342 33.243524 2.117759
2003-09-02 10:04:57 51°28.39 3°7.32 19.133253 4.516241 33.238734 2.117759
2003-09-02 10:05:57 51°28.47 3°6.97 19.109159 4.517506 33.228742 1.982922
2003-09-02 10:06:57 51°28.54 3°6.61 19.085467 4.514553 33.225965 1.982922
2003-09-02 10:07:55 51°28.65 3°6.29 19.160983 4.513392 33.216406 2.016631
2003-09-02 10:08:57 51°28.75 3°5.94 19.178181 4.517928 33.208991 1.949212
2003-09-02 10:09:57 51°28.85 3°5.61 19.204174 4.520671 33.21514 1.814375
2003-09-02 10:10:57 51°28.96 3°5.27 19.228276 4.52584 33.241799 1.848084
2003-09-02 10:11:57 51°29.05 3°4.93 19.246112 4.532697 33.27552 1.848084
2003-09-02 10:12:57 51°29.15 3°4.59 19.235599 4.536812 33.304233 1.949212
2003-09-02 10:13:57 51°29.24 3°4.26 19.214896 4.537656 33.314569 1.881794
2003-09-02 10:14:57 51°29.34 3°3.91 19.211827 4.537023 33.331481 1.780665
2003-09-02 10:15:57 51°29.44 3°3.57 19.205156 4.539661 33.351468 1.746956
2003-09-02 10:16:57 51°29.53 3°3.23 19.183626 4.542298 33.381116 1.679537
2003-09-02 10:17:57 51°29.62 3°2.89 19.332934 4.53966 33.320274 1.645828
2003-09-02 10:18:57 51°29.71 3°2.55 19.388471 4.539448 33.232107 1.612118
2003-09-02 10:19:55 51°29.8 3°2.23 19.431195 4.532589 33.153446 1.5447
2003-09-02 10:20:57 51°29.89 3°1.89 19.412223 4.528369 33.119462 1.51099
2003-09-02 10:21:57 51°30 3°1.58 19.413284 4.529529 33.112139 1.51099
2003-09-02 10:22:55 51°30.1 3°1.27 19.425402 4.533011 33.133895 1.578409
2003-09-02 10:23:57 51°30.21 3°0.93 19.417242 4.535121 33.14667 1.612118
2003-09-02 10:24:57 51°30.31 3°0.6 19.437355 4.536493 33.166869 1.612118
2003-09-02 10:25:57 51°30.41 3°0.27 19.569271 4.544194 33.197876 1.679537
2003-09-02 10:26:57 51°30.51 2°59.94 19.650042 4.570991 33.318005 1.578409
2003-09-02 10:27:55 51°30.61 2°59.62 19.661834 4.578586 33.319953 1.612118
2003-09-02 10:28:57 51°30.71 2°59.28 19.67643 4.580485 33.327024 1.578409
2003-09-02 10:29:57 51°30.81 2°58.95 19.688543 4.579852 33.31291 1.612118
2003-09-02 10:30:57 51°30.9 2°58.62 19.71772 4.583228 33.324173 1.612118
2003-09-02 10:31:57 51°31 2°58.29 19.733522 4.586287 33.332294 1.645828
2003-09-02 10:32:57 51°31.1 2°57.96 19.741483 4.589874 33.349736 1.645828
2003-09-02 10:33:57 51°31.19 2°57.62 19.726861 4.592934 33.371273 1.578409
2003-09-02 10:34:57 51°31.29 2°57.29 19.706912 4.594939 33.40327 1.51099
2003-09-02 10:35:55 51°31.38 2°56.96 19.721457 4.597577 33.432037 1.578409
2003-09-02 10:36:57 51°31.49 2°56.62 19.734375 4.605701 33.484713 1.308734
2003-09-02 10:37:57 51°31.58 2°56.29 19.76398 4.608128 33.496605 1.207606
2003-09-02 10:38:57 51°31.68 2°55.96 19.802256 4.614036 33.513234 1.342443
2003-09-02 10:39:57 51°31.76 2°55.63 19.81731 4.6191 33.531965 1.342443
2003-09-02 10:40:57 51°31.84 2°55.29 19.849394 4.620577 33.527138 1.207606
2003-09-02 10:41:57 51°31.92 2°55.08 19.83451 4.623425 33.532899 1.308734
2003-09-02 10:42:57 51°31.95 2°55.02 19.829236 4.625114 33.557276 1.241315
2003-09-02 10:43:57 51°31.94 2°54.99 19.810778 4.626697 33.576879 1.409862
2003-09-02 10:44:57 51°31.92 2°54.97 19.805138 4.627013 33.594067 1.376153
2003-09-02 10:45:57 51°31.91 2°54.94 19.788052 4.630074 33.627962 1.443571
2003-09-02 10:46:57 51°31.9 2°54.91 19.813983 4.629546 33.625922 1.477281
2003-09-02 10:47:57 51°31.89 2°54.88 19.822381 4.62828 33.597615 1.578409
2003-09-02 10:48:57 51°31.88 2°54.86 19.82587 4.627013 33.585634 1.612118
2003-09-02 10:49:57 51°31.87 2°54.84 19.825261 4.627963 33.584924 1.578409
2003-09-02 10:50:57 51°31.86 2°54.84 19.830372 4.628279 33.589183 1.612118
2003-09-02 10:51:57 51°31.88 2°54.87 19.843635 4.628385 33.585545 1.51099
2003-09-02 10:52:57 51°31.91 2°54.93 19.844811 4.630917 33.594889 1.207606
2003-09-02 10:53:57 51°31.94 2°55 19.853692 4.631656 33.600329 1.140187
2003-09-02 10:54:55 51°31.97 2°55.07 19.871532 4.632922 33.603875 1.140187
2003-09-02 10:55:57 51°31.99 2°55.16 19.868086 4.632605 33.588388 1.173896
2003-09-02 10:56:55 51°32.01 2°55.21 19.889853 4.630284 33.572903 1.140187
2003-09-02 10:57:57 51°32.03 2°55.26 19.88503 4.632816 33.574394 1.140187
2003-09-02 10:58:57 51°32.04 2°55.31 19.884016 4.631655 33.569457 1.140187
2003-09-02 10:59:57 51°32.06 2°55.35 19.886448 4.63271 33.576341 1.140187
2003-09-02 11:00:57 51°32.09 2°55.38 19.923281 4.632604 33.570438 1.106477
2003-09-02 11:01:57 51°32.11 2°55.42 19.911289 4.632498 33.545495 1.072768
2003-09-02 11:02:57 51°32.13 2°55.46 19.925631 4.631444 33.550372 1.072768
2003-09-02 11:03:57 51°32.14 2°55.52 19.923038 4.631443 33.535818 1.039059
2003-09-02 11:04:57 51°32.15 2°55.57 19.938227 4.631338 33.538319 1.005349
2003-09-02 11:05:57 51°32.16 2°55.62 19.933084 4.633659 33.542038 0.93793
2003-09-02 11:06:57 51°32.17 2°55.68 19.932841 4.632709 33.539372 0.93793
2003-09-02 11:07:57 51°32.18 2°55.73 19.930856 4.631971 33.537858 0.93793
2003-09-02 11:08:57 51°32.2 2°55.78 19.921863 4.632182 33.535654 0.97164
2003-09-02 11:09:57 51°32.21 2°55.83 19.920243 4.630599 33.533447 0.97164
2003-09-02 11:10:57 51°32.22 2°55.89 19.92004 4.630283 33.531439 0.93793
2003-09-02 11:11:57 51°32.23 2°55.93 19.917204 4.630599 33.533447 1.005349
2003-09-02 11:12:57 51°32.25 2°55.98 19.915179 4.629544 33.535522 1.039059
2003-09-02 11:13:57 51°32.26 2°56.02 19.92482 4.62965 33.525185 0.97164
2003-09-02 11:14:57 51°32.27 2°56.06 19.93361 4.631021 33.530716 0.97164
2003-09-02 11:15:57 51°32.29 2°56.1 19.930937 4.633553 33.54398 1.005349
2003-09-02 11:16:57 51°32.29 2°56.12 19.92875 4.633659 33.547633 1.005349
2003-09-02 11:17:57 51°32.27 2°56.14 19.905495 4.632604 33.540195 1.005349
2003-09-02 11:18:57 51°32.25 2°56.17 19.923808 4.633554 33.557973 1.106477
2003-09-02 11:19:57 51°32.23 2°56.19 19.890785 4.633237 33.550926 1.039059
2003-09-02 11:20:57 51°32.2 2°56.19 19.865815 4.632182 33.571497 1.140187
2003-09-02 11:21:57 51°32.17 2°56.19 19.835361 4.632288 33.590308 1.207606
2003-09-02 11:22:57 51°32.14 2°56.18 19.834104 4.631972 33.606273 1.241315
2003-09-02 11:23:57 51°32.11 2°56.17 19.824734 4.630917 33.599384 1.275024
2003-09-02 11:24:57 51°32.08 2°56.21 19.840147 4.632816 33.624381 1.342443
2003-09-02 11:25:57 51°31.97 2°56.28 19.826681 4.632605 33.610294 1.275024
2003-09-02 11:26:57 51°31.77 2°56.14 19.83382 4.630706 33.598793 1.207606
2003-09-02 11:27:57 51°31.54 2°56 19.831305 4.630284 33.594801 1.241315
2003-09-02 11:28:55 51°31.33 2°55.81 19.833374 4.629651 33.590217 1.308734
2003-09-02 11:29:57 51°31.1 2°55.62 19.836578 4.627857 33.574517 1.241315
2003-09-02 11:30:57 51°30.88 2°55.42 19.839296 4.627857 33.570025 1.241315
2003-09-02 11:31:57 51°30.67 2°55.22 19.829034 4.625747 33.552318 1.207606
2003-09-02 11:32:57 51°30.45 2°55.02 19.795114 4.618678 33.510021 1.173896
2003-09-02 11:33:57 51°30.24 2°54.81 19.758133 4.614352 33.500093 1.106477
2003-09-02 11:34:57 51°30.02 2°54.6 19.788539 4.61087 33.489169 1.173896
2003-09-02 11:35:57 51°29.8 2°54.4 19.809276 4.606438 33.43184 1.241315
2003-09-02 11:36:57 51°29.59 2°54.19 19.815525 4.602851 33.39989 1.207606
2003-09-02 11:37:57 51°29.37 2°53.99 19.851097 4.601162 33.359369 1.173896
2003-09-02 11:38:57 51°29.15 2°53.78 19.868126 4.598102 33.331185 1.207606
2003-09-02 11:39:57 51°28.92 2°53.59 19.892285 4.59557 33.285588 1.207606
2003-09-02 11:40:57 51°28.69 2°53.4 19.85353 4.594198 33.257798 1.342443
2003-09-02 11:41:57 51°28.46 2°53.21 19.843067 4.588184 33.230695 1.5447
2003-09-02 11:42:57 51°28.23 2°53.03 19.811183 4.582276 33.198875 1.612118
2003-09-02 11:43:57 51°28 2°52.84 19.77961 4.578161 33.183254 1.51099
2003-09-02 11:44:57 51°27.77 2°52.66 19.746032 4.572254 33.16861 1.409862
2003-09-02 11:45:57 51°27.54 2°52.5 19.73929 4.568983 33.162602 1.51099
2003-09-02 11:46:57 51°27.3 2°52.34 19.720482 4.565396 33.141234 1.51099
2003-09-02 11:47:57 51°27.07 2°52.2 19.696875 4.560754 33.120728 1.477281
2003-09-02 11:48:57 51°26.84 2°52.06 19.689478 4.557167 33.108789 1.477281
2003-09-02 11:49:57 51°26.61 2°51.93 19.619209 4.552631 33.086339 1.443571
2003-09-02 11:50:57 51°26.37 2°51.8 19.572894 4.543242 33.061616 1.308734
2003-09-02 11:51:57 51°26.14 2°51.67 19.550621 4.536912 33.038974 1.308734
2003-09-02 11:52:57 51°25.91 2°51.53 19.558277 4.53744 33.049397 1.173896
2003-09-02 11:53:57 51°25.67 2°51.39 19.537914 4.536174 33.046314 1.140187
2003-09-02 11:54:57 51°25.44 2°51.24 19.503201 4.520771 32.936307 1.477281
2003-09-02 11:55:57 51°25.2 2°51.09 19.495702 4.515391 32.909649 1.376153
2003-09-02 11:56:57 51°24.96 2°50.95 19.494724 4.511698 32.890081 1.342443
2003-09-02 11:57:57 51°24.73 2°50.8 19.525652 4.506423 32.848723 1.409862
2003-09-02 11:58:57 51°24.49 2°50.65 19.521415 4.50674 32.832466 1.409862
2003-09-02 11:59:57 51°24.25 2°50.51 19.522352 4.50674 32.833574 1.443571
2003-09-02 12:00:57 51°24.02 2°50.37 19.522352 4.504313 32.812136 1.578409
2003-09-02 12:01:57 51°23.78 2°50.23 19.523004 4.500199 32.778607 1.645828
2003-09-02 12:02:57 51°23.54 2°50.09 19.509029 4.496823 32.748339 1.679537
2003-09-02 12:03:57 51°23.31 2°49.95 19.466229 4.488911 32.707605 1.780665
2003-09-02 12:04:57 51°23.07 2°49.82 19.462681 4.481104 32.66659 1.814375
2003-09-02 12:05:55 51°22.85 2°49.7 19.423199 4.478784 32.658698 1.848084
2003-09-02 12:06:57 51°22.6 2°49.56 19.399899 4.474037 32.642046 2.08405
2003-09-02 12:07:55 51°22.38 2°49.43 19.366384 4.471611 32.644329 2.08405
2003-09-02 12:08:57 51°22.14 2°49.3 19.341758 4.467497 32.631725 1.814375
2003-09-02 12:09:57 51°21.91 2°49.16 19.326193 4.46602 32.635137 1.679537
2003-09-02 12:10:57 51°21.67 2°49.03 19.312056 4.463911 32.636147 1.713247
2003-09-02 12:11:55 51°21.45 2°48.9 19.267091 4.461695 32.629653 1.679537
2003-09-02 12:12:57 51°21.29 2°48.84 19.288024 4.458848 32.631825 1.645828
2003-09-02 12:13:57 51°21.24 2°48.82 19.260958 4.460641 32.635421 1.51099
2003-09-02 12:14:57 51°21.21 2°48.79 19.234781 4.456527 32.630563 1.780665
2003-09-02 12:15:57 51°21.19 2°48.77 19.243821 4.454101 32.624555 1.814375
2003-09-02 12:16:57 51°21.16 2°48.76 19.290517 4.454945 32.627031 1.746956
2003-09-02 12:17:55 51°21.14 2°48.75 19.234208 4.458742 32.63207 1.713247
2003-09-02 12:18:57 51°21.11 2°48.74 19.253105 4.454839 32.622285 1.713247
2003-09-02 12:19:57 51°21.09 2°48.73 19.268604 4.456632 32.622558 1.645828
2003-09-02 12:20:57 51°21.07 2°48.73 19.237726 4.458109 32.627444 1.645828
2003-09-02 12:21:57 51°21.04 2°48.74 19.219274 4.454945 32.629249 1.713247
2003-09-02 12:22:57 51°20.99 2°48.77 19.246602 4.452624 32.612458 1.746956
2003-09-02 12:23:57 51°20.92 2°48.66 19.269136 4.454734 32.619758 1.645828
2003-09-02 12:24:57 51°20.96 2°48.55 19.254987 4.455999 32.618484 1.645828
2003-09-02 12:25:57 51°21 2°48.56 19.240876 4.455577 32.613922 1.578409
2003-09-02 12:26:55 51°21.02 2°48.6 19.246848 4.455367 32.630487 1.746956
2003-09-02 12:27:57 51°21.02 2°48.65 19.26795 4.456633 32.627546 1.612118
2003-09-02 12:28:57 51°21.03 2°48.69 19.296812 4.45927 32.634725 1.5447
2003-09-02 12:29:57 51°21.04 2°48.74 19.2832 4.461168 32.627553 1.443571
2003-09-02 12:30:57 51°21.04 2°48.79 19.301267 4.460957 32.640226 1.5447
2003-09-02 12:31:57 51°21.05 2°48.85 19.305027 4.461696 32.637959 1.477281
2003-09-02 12:32:57 51°21.06 2°48.88 19.319697 4.464122 32.644515 1.409862
2003-09-02 12:33:57 51°21.08 2°48.91 19.309482 4.465599 32.656594 1.5447
2003-09-02 12:34:57 51°21.11 2°48.93 19.323701 4.465282 32.652344 1.51099
2003-09-02 12:35:57 51°21.12 2°48.98 19.417079 4.466864 32.658085 1.612118
2003-09-02 12:36:57 51°21.14 2°49.01 19.433235 4.475303 32.651272 1.241315
2003-09-02 12:37:57 51°21.17 2°49.05 19.403368 4.476146 32.652086 1.308734
2003-09-02 12:38:57 51°21.2 2°49.09 19.376754 4.473299 32.668616 1.477281
2003-09-02 12:39:57 51°21.22 2°49.15 19.415733 4.471822 32.660976 1.443571
2003-09-02 12:40:57 51°21.24 2°49.22 19.401491 4.473721 32.657688 1.51099
2003-09-02 12:41:57 51°21.25 2°49.29 19.432419 4.474037 32.658614 1.5447
2003-09-02 12:42:57 51°21.25 2°49.37 19.52166 4.480366 32.65395 1.207606
2003-09-02 12:43:57 51°21.26 2°49.45 19.470021 4.483214 32.660627 1.173896
2003-09-02 12:44:57 51°21.27 2°49.52 19.448735 4.480577 32.652914 1.140187
2003-09-02 12:45:57 51°21.27 2°49.59 19.420017 4.477307 32.667076 1.241315
2003-09-02 12:46:57 51°21.27 2°49.65 19.439843 4.475408 32.654894 1.140187
2003-09-02 12:47:57 51°21.28 2°49.71 19.399858 4.47699 32.652899 1.106477
2003-09-02 12:48:57 51°21.29 2°49.75 19.379245 4.473932 32.660516 1.140187
2003-09-02 12:49:57 51°21.3 2°49.8 19.396879 4.473826 32.657444 1.173896
2003-09-02 12:50:57 51°21.32 2°49.84 19.402633 4.473299 32.661428 1.207606
2003-09-02 12:51:57 51°21.34 2°49.87 19.408592 4.474353 32.655673 1.140187
2003-09-02 12:52:57 51°21.35 2°49.89 19.292561 4.4714 32.664167 1.275024
2003-09-02 12:53:57 51°21.34 2°49.91 19.350049 4.46486 32.66108 1.409862
2003-09-02 12:54:57 51°21.33 2°49.92 19.316387 4.469607 32.657258 1.376153
2003-09-02 12:55:57 51°21.32 2°49.94 19.386593 4.468869 32.660631 1.308734
2003-09-02 12:56:57 51°21.3 2°49.95 19.345883 4.472033 32.654406 1.275024
2003-09-02 12:57:57 51°21.29 2°49.95 19.287329 4.467603 32.665785 1.5447
2003-09-02 12:58:57 51°21.27 2°49.94 19.286062 4.463911 32.655529 1.578409
2003-09-02 12:59:57 51°21.25 2°49.93 19.280993 4.463067 32.656937 1.578409
2003-09-02 13:00:57 51°21.24 2°49.95 19.295749 4.462012 32.647196 1.612118
2003-09-02 13:01:57 51°21.19 2°50.03 19.289455 4.464333 32.651225 1.477281
2003-09-02 13:02:57 51°21.05 2°50.02 19.272243 4.46043 32.643668 1.578409
2003-09-02 13:03:57 51°20.82 2°50.02 19.37308 4.458426 32.632805 1.645828
2003-09-02 13:04:57 51°20.6 2°50.14 19.078743 4.458003 32.605541 1.679537
2003-09-02 13:05:57 51°20.38 2°50.27 19.17728 4.433005 32.573111 1.915503
2003-09-02 13:06:57 51°20.16 2°50.4 19.013358 4.442287 32.603191 1.982922
2003-09-02 13:07:57 51°19.94 2°50.53 19.006422 4.426571 32.559728 2.218888
2003-09-02 13:08:57 51°19.72 2°50.66 18.976372 4.423195 32.546996 2.353725
2003-09-02 13:09:57 51°19.51 2°50.79 18.988566 4.422879 32.559992 2.454853
2003-09-02 13:10:57 51°19.29 2°50.91 19.029402 4.426466 32.581705 2.488563
2003-09-02 13:11:57 51°19.06 2°51.03 19.034613 4.434693 32.594771 2.488563
2003-09-02 13:12:57 51°18.84 2°51.17 19.000183 4.43079 32.561028 2.522272
2003-09-02 13:13:57 51°18.63 2°51.32 18.957359 4.421402 32.53113 2.555982
2003-09-02 13:14:57 51°18.41 2°51.46 18.955141 4.414019 32.508219 2.724529
2003-09-02 13:15:57 51°18.2 2°51.61 18.956373 4.410643 32.493789 3.027913
2003-09-02 13:16:57 51°17.99 2°51.76 18.948158 4.406318 32.464293 3.331298
2003-09-02 13:17:57 51°17.78 2°51.93 18.934889 4.406213 32.470661 3.735811
2003-09-02 13:18:57 51°17.57 2°52.11 18.919603 4.409483 32.488131 3.836939
2003-09-02 13:19:57 51°17.36 2°52.29 18.896258 4.410116 32.501702 3.904358
2003-09-02 13:20:57 51°17.18 2°52.52 18.899053 4.412648 32.537069 3.735811
2003-09-02 13:21:57 51°17.07 2°52.76 18.90822 4.41634 32.566389 3.735811
2003-09-02 13:22:57 51°17.03 2°52.91 18.948938 4.419821 32.579439 3.533554
2003-09-02 13:23:57 51°17.02 2°52.97 18.906452 4.415812 32.525214 3.398717
2003-09-02 13:24:57 51°17.01 2°52.98 18.886392 4.408639 32.505143 3.702101
2003-09-02 13:25:57 51°17 2°52.99 18.899876 4.406213 32.494624 3.904358
2003-09-02 13:26:57 51°16.99 2°52.99 18.896258 4.40558 32.484388 3.870648
2003-09-02 13:27:57 51°16.98 2°52.99 18.894902 4.405475 32.47906 3.938067
2003-09-02 13:28:57 51°16.97 2°52.99 18.896834 4.404948 32.478614 3.904358
2003-09-02 13:29:57 51°16.97 2°53.03 18.98795 4.404631 32.467649 3.80323
2003-09-02 13:30:57 51°16.98 2°53.14 18.897615 4.409588 32.449509 3.466136
2003-09-02 13:31:57 51°16.98 2°53.27 18.890996 4.40115 32.445646 3.668392
2003-09-02 13:32:57 51°16.98 2°53.38 18.90152 4.400306 32.433127 3.634683
2003-09-02 13:33:57 51°16.97 2°53.46 18.900122 4.399146 32.424679 3.904358
2003-09-02 13:34:57 51°16.95 2°53.53 19.001168 4.399356 32.408071 3.904358
2003-09-02 13:35:57 51°16.94 2°53.6 19.028623 4.406844 32.397559 3.533554
2003-09-02 13:36:57 51°16.94 2°53.66 19.061972 4.408427 32.40613 3.735811
2003-09-02 13:37:57 51°16.94 2°53.72 19.085303 4.411907 32.41202 3.80323
2003-09-02 13:38:57 51°16.94 2°53.77 19.052088 4.413595 32.417022 3.600973
2003-09-02 13:40:03 51°16.93 2°53.84 19.104938 4.408743 32.414272 4.005486
2003-09-02 13:41:03 51°16.92 2°53.91 19.164095 4.418446 32.402652 3.634683
2003-09-02 13:42:03 51°16.93 2°53.97 19.121903 4.421611 32.410924 3.600973
2003-09-02 13:43:03 51°16.94 2°54.03 19.193246 4.420662 32.418604 3.836939
2003-09-02 13:44:09 51°16.95 2°54.09 19.149802 4.426674 32.414885 3.76952
2003-09-02 13:45:09 51°16.96 2°54.15 19.141569 4.422982 32.417193 3.80323
2003-09-02 13:46:09 51°16.97 2°54.21 19.063202 4.420451 32.415217 3.971777
2003-09-02 13:47:09 51°16.98 2°54.28 19.191567 4.415283 32.418702 4.005486
2003-09-02 13:48:09 51°16.98 2°54.34 19.209249 4.424564 32.411395 3.702101
2003-09-02 13:49:09 51°16.98 2°54.41 19.065089 4.419291 32.418963 3.76952
2003-09-02 13:50:09 51°16.99 2°54.47 19.034572 4.412435 32.41303 3.80323
2003-09-02 13:51:09 51°17.01 2°54.53 19.027187 4.407161 32.407918 3.904358
2003-09-02 13:52:09 51°17.02 2°54.59 19.046879 4.409903 32.402202 3.904358
2003-09-02 13:53:13 51°17.03 2°54.65 19.104528 4.411591 32.405546 3.870648
2003-09-02 13:54:11 51°17.04 2°54.7 19.056395 4.415177 32.417283 3.870648
2003-09-02 13:55:19 51°17.05 2°54.75 19.051268 4.414228 32.420558 3.938067
2003-09-02 13:56:19 51°17.06 2°54.79 19.098831 4.414333 32.415889 3.904358
2003-09-02 13:57:19 51°17.06 2°54.82 18.989634 4.415177 32.428353 4.039195
2003-09-02 13:58:19 51°17.05 2°54.89 19.00203 4.40695 32.421156 4.106614
2003-09-02 13:59:19 51°16.99 2°55.02 19.179573 4.409693 32.420412 4.174033
2003-09-02 14:00:19 51°16.92 2°55.07 19.086656 4.415598 32.346233 4.207742
2003-09-02 14:01:19 51°16.86 2°55.06 19.097109 4.410008 32.337887 3.971777
2003-09-02 14:02:19 51°16.82 2°55.05 19.057379 4.405472 32.332123 3.870648
2003-09-02 14:03:19 51°16.78 2°55.04 18.940189 4.400199 32.340189 3.904358
2003-09-02 14:04:19 51°16.73 2°55.02 18.936738 4.391867 32.335324 3.836939
2003-09-02 14:05:19 51°16.53 2°54.96 18.930944 4.391234 32.32513 3.870648
2003-09-02 14:06:19 51°16.32 2°54.86 18.931972 4.389863 32.330466 3.971777
2003-09-02 14:07:19 51°16.09 2°54.77 18.986308 4.393131 32.294282 4.511127
2003-09-02 14:08:19 51°15.87 2°54.67 18.930493 4.39598 32.315473 4.814512
2003-09-02 14:09:19 51°15.65 2°54.67 19.191199 4.387647 32.263568 4.544836
2003-09-02 14:10:19 51°15.42 2°54.72 19.064105 4.389018 32.272076 4.578546
2003-09-02 14:11:19 51°15.2 2°54.78 18.952348 4.386908 32.265782 4.747093
2003-09-02 14:12:19 51°14.98 2°54.86 19.030633 4.378893 32.26729 4.645965
2003-09-02 14:13:19 51°14.76 2°54.93 19.017051 4.375728 32.246766 5.421281
2003-09-02 14:14:19 51°14.54 2°55.01 19.158485 4.386908 32.255292 7.71352
2003-09-02 14:15:19 51°14.34 2°55.14 18.941626 4.368238 32.099729 8.691093
2003-09-02 14:16:19 51°14.22 2°55.33 18.797777 4.219841 31.034368 7.949486
2003-09-02 14:17:19 51°14.12 2°55.44 18.820126 4.031091 29.598137 7.443845
2003-09-02 14:18:19 51°14.03 2°55.5 18.722856 3.901208 28.563156 6.769657
2003-09-02 14:19:19 51°13.93 2°55.56 18.692148 3.8075 27.802695 6.735947
2003-09-02 14:20:23 51°13.83 2°55.63 18.746424 3.782942 27.601706 7.443845
2003-09-02 14:21:23 51°13.75 2°55.72 18.768708 3.704215 26.948122 7.17417
2003-09-02 14:22:23 51°13.69 2°55.85 18.872617 3.604424 26.121322 7.207879
2003-09-02 14:23:23 51°13.64 2°55.96 18.818027 3.560382 25.759473 6.735947
2003-09-02 14:24:23 51°13.61 2°56.07 18.873522 3.61728 26.237243 6.095469
2003-09-02 14:25:23 51°13.6 2°56.11 18.850655 3.45166 24.835376 5.4887